Date,TemperatureHighF,TemperatureAvgF,TemperatureLowF,DewpointHighF,DewpointAvgF,DewpointLowF,HumidityHigh,HumidityAvg,HumidityLow,PressureMaxIn,PressureMinIn,WindSpeedMaxMPH,WindSpeedAvgMPH,GustSpeedMaxMPH,PrecipitationSumIn
2013-1-1,48,45,43,47,42,38,99,90,78,29.87,29.46,14,6,19,0.46
2013-1-2,47,44,41,45,42,40,98,90,81,30.23,29.87,11,5,19,0.00
2013-1-3,52,50,46,51,49,45,100,97,92,30.54,30.21,10,7,16,0.02
2013-1-4,51,49,47,50,48,47,99,98,93,30.56,30.51,10,4,15,0.02
2013-1-5,48,47,46,47,46,45,99,97,95,30.53,30.45,5,1,11,0.01
2013-1-6,51,48,46,48,47,45,99,95,89,30.45,30.39,7,3,10,0.00
2013-1-7,47,45,43,46,44,42,100,97,90,30.40,30.26,8,4,13,0.01
2013-1-8,48,45,43,45,43,42,98,94,90,30.26,30.19,7,5,14,0.00
2013-1-9,47,44,40,47,43,40,100,98,93,30.19,30.01,7,4,15,0.12
2013-1-10,46,43,40,41,40,38,98,88,75,30.01,29.84,7,2,13,0.09
2013-1-11,39,34,29,38,30,26,96,84,63,30.07,29.89,5,1,10,0.01
2013-1-12,37,33,29,29,27,24,91,79,63,30.06,29.99,7,2,13,0.00
2013-1-13,34,29,25,27,24,22,89,83,64,30.08,30.01,6,3,13,0.00
2013-1-14,30,27,23,28,25,21,95,91,79,30.03,29.64,11,2,14,0.01
2013-1-15,29,28,26,28,26,22,97,95,86,29.79,29.58,13,5,19,0.09
2013-1-16,30,22,13,26,19,10,95,87,74,29.98,29.78,3,0,6,0.00
2013-1-17,23,21,15,22,20,13,96,95,92,30.09,29.98,1,0,2,0.00
2013-1-18,31,28,23,28,26,22,96,92,85,30.02,29.56,9,4,15,0.00
2013-1-19,29,26,23,25,20,17,85,80,71,29.56,29.46,12,6,20,0.00
2013-1-20,28,24,22,27,21,17,96,87,78,29.47,29.28,9,6,15,0.13
2013-1-21,32,29,27,31,28,26,98,97,94,29.54,29.32,8,4,11,0.02
2013-1-22,30,27,22,26,24,20,94,90,83,29.75,29.55,3,1,6,0.00
2013-1-23,28,24,18,24,21,16,94,89,85,29.85,29.75,3,0,7,0.00
2013-1-24,32,26,21,25,21,16,93,82,67,30.11,29.84,6,1,8,0.00
2013-1-25,29,23,15,25,20,13,95,86,75,30.11,29.81,12,3,16,0.00
2013-1-26,34,30,26,33,27,22,96,89,81,29.80,29.70,11,7,18,0.02
2013-1-27,42,39,34,41,37,33,97,94,89,29.75,29.39,15,8,21,0.28
2013-1-28,45,41,37,44,38,36,96,90,80,29.84,29.56,18,8,24,0.15
2013-1-29,55,50,45,52,49,44,99,95,89,29.67,29.57,17,12,30,0.24
2013-1-30,55,50,47,53,46,38,100,87,67,29.87,29.50,20,13,33,0.48
2013-1-31,49,46,43,44,40,38,94,81,71,29.94,29.70,20,14,29,0.11